Time,TemperatureF,DewpointF,PressureIn,WindDirection,WindDirectionDegrees,WindSpeedMPH,WindSpeedGustMPH,Humidity,HourlyPrecipIn,Conditions,Clouds,dailyrainin,SoftwareType,DateUTC
2013-04-18 00:03:00,58.0,53.0,30.23,East,97,3.0,7.0,83,0.00,,,0.00,,2013-04-18 04:03:00,
2013-04-18 00:13:00,58.0,53.0,30.23,East,97,3.0,7.0,83,0.00,,,0.00,,2013-04-18 04:13:00,
2013-04-18 00:23:00,57.0,52.0,30.23,ESE,111,4.0,9.0,83,0.00,,,0.00,,2013-04-18 04:23:00,
2013-04-18 00:33:00,57.0,51.0,30.23,ESE,110,4.0,9.0,81,0.00,,,0.00,,2013-04-18 04:33:00,
2013-04-18 00:43:00,56.0,50.0,30.23,ESE,109,3.0,10.0,80,0.00,,,0.00,,2013-04-18 04:43:00,
2013-04-18 00:53:00,56.0,50.0,30.23,ESE,109,3.0,10.0,80,0.00,,,0.00,,2013-04-18 04:53:00,
2013-04-18 01:02:00,56.0,49.0,30.23,East,97,5.0,9.0,77,0.00,,,0.00,,2013-04-18 05:02:00,
2013-04-18 01:12:00,56.0,48.0,30.23,East,87,6.0,12.0,75,0.00,,,0.00,,2013-04-18 05:12:00,
2013-04-18 01:22:00,56.0,48.0,30.23,East,87,6.0,12.0,75,0.00,,,0.00,,2013-04-18 05:22:00,
2013-04-18 01:33:00,56.0,47.0,30.24,SE,133,3.0,9.0,73,0.00,,,0.00,,2013-04-18 05:33:00,
2013-04-18 01:42:00,55.0,47.0,30.24,ESE,102,5.0,7.0,74,0.00,,,0.00,,2013-04-18 05:42:00,
2013-04-18 01:52:00,55.0,47.0,30.24,ESE,102,5.0,7.0,74,0.00,,,0.00,,2013-04-18 05:52:00,
2013-04-18 02:02:00,55.0,47.0,30.23,ESE,109,3.0,7.0,74,0.00,,,0.00,,2013-04-18 06:02:00,
2013-04-18 02:12:00,55.0,47.0,30.23,ESE,109,3.0,7.0,74,0.00,,,0.00,,2013-04-18 06:12:00,
2013-04-18 02:22:00,55.0,47.0,30.24,ESE,112,4.0,7.0,74,0.00,,,0.00,,2013-04-18 06:22:00,
2013-04-18 02:32:00,55.0,47.0,30.24,East,87,2.0,6.0,74,0.00,,,0.00,,2013-04-18 06:32:00,
2013-04-18 02:42:00,55.0,47.0,30.24,SE,136,4.0,7.0,74,0.00,,,0.00,,2013-04-18 06:42:00,
2013-04-18 02:52:00,55.0,47.0,30.24,SE,136,4.0,7.0,74,0.00,,,0.00,,2013-04-18 06:52:00,
2013-04-18 03:02:00,55.0,47.0,30.22,SE,124,2.0,5.0,73,0.00,,,0.00,,2013-04-18 07:02:00,
2013-04-18 03:12:00,55.0,46.0,30.22,East,90,1.0,7.0,71,0.00,,,0.00,,2013-04-18 07:12:00,
2013-04-18 03:22:00,55.0,46.0,30.22,East,90,1.0,7.0,71,0.00,,,0.00,,2013-04-18 07:22:00,
2013-04-18 03:32:00,56.0,44.0,30.22,ESE,104,3.0,7.0,63,0.00,,,0.00,,2013-04-18 07:32:00,
2013-04-18 03:42:00,56.0,44.0,30.22,East,93,2.0,7.0,63,0.00,,,0.00,,2013-04-18 07:42:00,
2013-04-18 03:52:00,56.0,44.0,30.22,East,93,2.0,7.0,63,0.00,,,0.00,,2013-04-18 07:52:00,
2013-04-18 04:02:00,56.0,43.0,30.22,ENE,64,2.0,6.0,61,0.00,,,0.00,,2013-04-18 08:02:00,
2013-04-18 04:12:00,57.0,43.0,30.22,East,91,1.0,3.0,59,0.00,,,0.00,,2013-04-18 08:12:00,
2013-04-18 04:22:00,57.0,43.0,30.22,East,91,1.0,3.0,59,0.00,,,0.00,,2013-04-18 08:22:00,
2013-04-18 04:32:00,57.0,41.0,30.22,ESE,102,2.0,3.0,56,0.00,,,0.00,,2013-04-18 08:32:00,
2013-04-18 04:42:00,57.0,41.0,30.20,ESE,103,3.0,5.0,54,0.00,,,0.00,,2013-04-18 08:42:00,
2013-04-18 04:52:00,57.0,41.0,30.20,ESE,103,3.0,5.0,54,0.00,,,0.00,,2013-04-18 08:52:00,
2013-04-18 05:02:00,57.0,41.0,30.20,East,81,2.0,7.0,56,0.00,,,0.00,,2013-04-18 09:02:00,
2013-04-18 05:12:00,57.0,42.0,30.19,East,96,3.0,8.0,57,0.00,,,0.00,,2013-04-18 09:12:00,
2013-04-18 05:22:00,57.0,42.0,30.19,East,96,3.0,8.0,57,0.00,,,0.00,,2013-04-18 09:22:00,
2013-04-18 05:33:00,57.0,41.0,30.17,East,100,3.0,10.0,54,0.00,,,0.00,,2013-04-18 09:33:00,
2013-04-18 05:43:00,57.0,39.0,30.17,ESE,119,4.0,10.0,51,0.00,,,0.00,,2013-04-18 09:43:00,
2013-04-18 05:53:00,57.0,39.0,30.17,ESE,119,4.0,10.0,51,0.00,,,0.00,,2013-04-18 09:53:00,
2013-04-18 06:03:00,57.0,39.0,30.18,ESE,103,5.0,12.0,50,0.00,,,0.00,,2013-04-18 10:03:00,
2013-04-18 06:12:00,57.0,39.0,30.18,ESE,103,5.0,12.0,50,0.00,,,0.00,,2013-04-18 10:12:00,
2013-04-18 06:23:00,57.0,38.0,30.19,ENE,70,3.0,9.0,49,0.00,,,0.00,,2013-04-18 10:23:00,
2013-04-18 06:33:00,57.0,39.0,30.20,ESE,123,2.0,6.0,50,0.00,,,0.00,,2013-04-18 10:33:00,
2013-04-18 06:42:00,57.0,39.0,30.20,ESE,123,2.0,6.0,50,0.00,,,0.00,,2013-04-18 10:42:00,
2013-04-18 06:52:00,57.0,38.0,30.20,NE,52,2.0,6.0,49,0.00,,,0.00,,2013-04-18 10:52:00,
2013-04-18 07:03:00,57.0,37.0,30.20,SE,140,2.0,6.0,47,0.00,,,0.00,,2013-04-18 11:03:00,
2013-04-18 07:12:00,57.0,37.0,30.21,NE,52,2.0,9.0,47,0.00,,,0.00,,2013-04-18 11:12:00,
2013-04-18 07:22:00,57.0,37.0,30.21,NE,52,2.0,9.0,47,0.00,,,0.00,,2013-04-18 11:22:00,
2013-04-18 07:32:00,57.0,38.0,30.22,East,88,2.0,9.0,48,0.00,,,0.00,,2013-04-18 11:32:00,
2013-04-18 07:42:00,57.0,38.0,30.22,East,88,2.0,9.0,48,0.00,,,0.00,,2013-04-18 11:42:00,
2013-04-18 07:52:00,57.0,38.0,30.21,ESE,105,1.0,5.0,49,0.00,,,0.00,,2013-04-18 11:52:00,
2013-04-18 08:02:00,57.0,38.0,30.22,East,83,1.0,6.0,49,0.00,,,0.00,,2013-04-18 12:02:00,
2013-04-18 08:12:00,57.0,38.0,30.22,East,83,1.0,6.0,49,0.00,,,0.00,,2013-04-18 12:12:00,
2013-04-18 08:22:00,57.0,39.0,30.22,NE,35,2.0,5.0,50,0.00,,,0.00,,2013-04-18 12:22:00,
2013-04-18 08:32:00,57.0,37.0,30.22,ENE,73,2.0,7.0,47,0.00,,,0.00,,2013-04-18 12:32:00,
2013-04-18 08:42:00,57.0,37.0,30.22,ENE,73,2.0,7.0,47,0.00,,,0.00,,2013-04-18 12:42:00,
2013-04-18 08:52:00,57.0,37.0,30.22,East,89,3.0,8.0,47,0.00,,,0.00,,2013-04-18 12:52:00,
2013-04-18 09:03:00,57.0,40.0,30.22,East,89,4.0,12.0,52,0.00,,,0.00,,2013-04-18 13:03:00,
2013-04-18 09:12:00,57.0,40.0,30.22,East,89,4.0,12.0,52,0.00,,,0.00,,2013-04-18 13:12:00,
2013-04-18 09:22:00,57.0,40.0,30.21,ESE,112,3.0,12.0,53,0.00,,,0.00,,2013-04-18 13:22:00,
2013-04-18 09:32:00,57.0,41.0,30.22,ESE,109,3.0,10.0,56,0.00,,,0.00,,2013-04-18 13:32:00,
2013-04-18 09:42:00,57.0,42.0,30.23,ESE,111,5.0,10.0,57,0.00,,,0.00,,2013-04-18 13:42:00,
2013-04-18 09:52:00,57.0,42.0,30.23,ESE,111,5.0,10.0,57,0.00,,,0.00,,2013-04-18 13:52:00,
2013-04-18 10:03:00,57.0,44.0,30.23,East,98,5.0,9.0,62,0.00,,,0.00,,2013-04-18 14:03:00,
2013-04-18 10:12:00,57.0,45.0,30.22,ESE,116,5.0,12.0,64,0.00,,,0.00,,2013-04-18 14:12:00,
2013-04-18 10:22:00,57.0,45.0,30.22,ESE,116,5.0,12.0,64,0.00,,,0.00,,2013-04-18 14:22:00,
2013-04-18 10:33:00,57.0,47.0,30.23,ESE,111,3.0,9.0,69,0.00,,,0.00,,2013-04-18 14:33:00,
2013-04-18 10:43:00,57.0,47.0,30.23,ESE,111,3.0,9.0,69,0.00,,,0.00,,2013-04-18 14:43:00,
2013-04-18 10:52:00,57.0,48.0,30.23,East,97,4.0,12.0,71,0.00,,,0.00,,2013-04-18 14:52:00,
2013-04-18 11:03:00,57.0,50.0,30.23,East,90,5.0,9.0,76,0.00,,,0.00,,2013-04-18 15:03:00,
2013-04-18 11:12:00,57.0,50.0,30.23,East,90,5.0,9.0,76,0.00,,,0.00,,2013-04-18 15:12:00,
2013-04-18 11:22:00,57.0,51.0,30.23,East,96,4.0,10.0,81,0.00,,,0.00,,2013-04-18 15:22:00,
2013-04-18 11:33:00,56.0,52.0,30.22,ESE,111,5.0,10.0,88,0.02,,,0.02,,2013-04-18 15:33:00,
2013-04-18 11:43:00,55.0,52.0,30.22,ESE,108,2.0,10.0,91,0.03,,,0.03,,2013-04-18 15:43:00,
2013-04-18 11:52:00,55.0,52.0,30.22,ESE,108,2.0,10.0,91,0.03,,,0.03,,2013-04-18 15:52:00,
2013-04-18 12:03:00,56.0,54.0,30.21,East,97,2.0,8.0,92,0.03,,,0.03,,2013-04-18 16:03:00,
2013-04-18 12:13:00,56.0,53.0,30.21,ESE,105,2.0,7.0,91,0.04,,,0.04,,2013-04-18 16:13:00,
2013-04-18 12:23:00,56.0,53.0,30.21,ESE,105,2.0,7.0,91,0.04,,,0.04,,2013-04-18 16:23:00,
2013-04-18 12:33:00,57.0,55.0,30.20,East,92,3.0,8.0,92,0.02,,,0.04,,2013-04-18 16:33:00,
2013-04-18 12:43:00,57.0,55.0,30.19,East,101,5.0,8.0,92,0.01,,,0.04,,2013-04-18 16:43:00,
2013-04-18 12:52:00,57.0,55.0,30.19,East,101,5.0,8.0,92,0.01,,,0.04,,2013-04-18 16:52:00,
2013-04-18 13:03:00,57.0,54.0,30.19,ESE,107,4.0,9.0,91,0.01,,,0.04,,2013-04-18 17:03:00,
2013-04-18 13:12:00,57.0,54.0,30.19,ENE,64,3.0,8.0,91,0.00,,,0.04,,2013-04-18 17:12:00,
2013-04-18 13:22:00,57.0,54.0,30.19,ENE,64,3.0,8.0,91,0.00,,,0.04,,2013-04-18 17:22:00,
2013-04-18 13:33:00,57.0,55.0,30.17,ESE,110,3.0,8.0,93,0.00,,,0.04,,2013-04-18 17:33:00,
2013-04-18 13:42:00,57.0,55.0,30.17,SE,128,5.0,10.0,93,0.00,,,0.04,,2013-04-18 17:42:00,
2013-04-18 13:52:00,57.0,55.0,30.17,SE,128,5.0,10.0,93,0.00,,,0.04,,2013-04-18 17:52:00,
2013-04-18 14:03:00,58.0,56.0,30.16,ESE,117,3.0,9.0,93,0.00,,,0.04,,2013-04-18 18:03:00,
2013-04-18 14:12:00,58.0,56.0,30.16,East,83,4.0,12.0,93,0.00,,,0.04,,2013-04-18 18:12:00,
2013-04-18 14:23:00,58.0,56.0,30.16,East,83,4.0,12.0,93,0.00,,,0.04,,2013-04-18 18:23:00,
2013-04-18 14:32:00,58.0,56.0,30.16,ESE,112,5.0,8.0,93,0.00,,,0.04,,2013-04-18 18:32:00,
2013-04-18 14:42:00,58.0,56.0,30.15,ESE,102,4.0,10.0,93,0.00,,,0.04,,2013-04-18 18:42:00,
2013-04-18 14:52:00,58.0,56.0,30.15,ESE,102,4.0,10.0,93,0.00,,,0.04,,2013-04-18 18:52:00,
2013-04-18 15:03:00,59.0,57.0,30.15,ESE,112,2.0,9.0,93,0.00,,,0.04,,2013-04-18 19:03:00,
2013-04-18 15:12:00,59.0,57.0,30.15,ESE,112,2.0,9.0,93,0.00,,,0.04,,2013-04-18 19:12:00,
2013-04-18 15:22:00,59.0,57.0,30.14,East,101,5.0,9.0,93,0.00,,,0.04,,2013-04-18 19:22:00,
2013-04-18 15:32:00,60.0,58.0,30.14,East,98,4.0,8.0,93,0.00,,,0.04,,2013-04-18 19:32:00,
2013-04-18 15:42:00,60.0,58.0,30.14,East,98,4.0,8.0,93,0.00,,,0.04,,2013-04-18 19:42:00,
2013-04-18 15:52:00,60.0,58.0,30.13,East,98,5.0,9.0,93,0.00,,,0.04,,2013-04-18 19:52:00,
2013-04-18 16:02:00,60.0,58.0,30.12,ESE,118,4.0,8.0,93,0.00,,,0.04,,2013-04-18 20:02:00,
2013-04-18 16:12:00,60.0,58.0,30.12,ESE,118,4.0,8.0,93,0.00,,,0.04,,2013-04-18 20:12:00,
2013-04-18 16:22:00,60.0,58.0,30.12,East,100,4.0,8.0,93,0.00,,,0.04,,2013-04-18 20:22:00,
2013-04-18 16:32:00,61.0,59.0,30.11,ESE,117,3.0,10.0,93,0.00,,,0.04,,2013-04-18 20:32:00,
2013-04-18 16:42:00,61.0,59.0,30.11,ESE,107,2.0,8.0,93,0.00,,,0.04,,2013-04-18 20:42:00,
2013-04-18 16:52:00,61.0,59.0,30.11,ESE,107,2.0,8.0,93,0.00,,,0.04,,2013-04-18 20:52:00,
2013-04-18 17:02:00,61.0,59.0,30.11,East,98,2.0,8.0,92,0.00,,,0.04,,2013-04-18 21:02:00,
2013-04-18 17:12:00,61.0,59.0,30.11,ESE,107,4.0,8.0,92,0.00,,,0.04,,2013-04-18 21:12:00,
2013-04-18 17:22:00,61.0,59.0,30.11,ESE,107,4.0,8.0,92,0.00,,,0.04,,2013-04-18 21:22:00,
2013-04-18 17:33:00,61.0,58.0,30.10,North,10,3.0,7.0,91,0.00,,,0.04,,2013-04-18 21:33:00,
2013-04-18 17:43:00,61.0,59.0,30.09,ESE,106,3.0,9.0,92,0.00,,,0.04,,2013-04-18 21:43:00,
2013-04-18 17:53:00,61.0,59.0,30.09,ESE,106,3.0,9.0,92,0.00,,,0.04,,2013-04-18 21:53:00,
2013-04-18 18:03:00,62.0,60.0,30.09,ESE,105,3.0,9.0,92,0.00,,,0.04,,2013-04-18 22:03:00,
2013-04-18 18:13:00,62.0,60.0,30.09,SE,125,3.0,7.0,92,0.00,,,0.04,,2013-04-18 22:13:00,
2013-04-18 18:23:00,62.0,60.0,30.09,SE,125,3.0,7.0,92,0.00,,,0.04,,2013-04-18 22:23:00,
2013-04-18 18:33:00,62.0,59.0,30.08,East,96,3.0,7.0,91,0.00,,,0.04,,2013-04-18 22:33:00,
2013-04-18 18:42:00,62.0,59.0,30.08,SE,124,2.0,8.0,91,0.00,,,0.04,,2013-04-18 22:42:00,
2013-04-18 18:52:00,62.0,59.0,30.08,SE,124,2.0,8.0,91,0.00,,,0.04,,2013-04-18 22:52:00,
2013-04-18 19:04:00,63.0,60.0,30.08,ESE,116,3.0,9.0,90,0.00,,,0.04,,2013-04-18 23:04:00,
2013-04-18 19:12:00,63.0,60.0,30.07,East,83,3.0,8.0,90,0.00,,,0.04,,2013-04-18 23:12:00,
2013-04-18 19:21:00,63.0,60.0,30.07,East,83,3.0,8.0,90,0.00,,,0.04,,2013-04-18 23:21:00,
2013-04-18 19:32:00,62.0,59.0,30.06,NE,53,2.0,7.0,90,0.00,,,0.04,,2013-04-18 23:32:00,
2013-04-18 19:42:00,62.0,59.0,30.06,ESE,102,3.0,7.0,90,0.00,,,0.04,,2013-04-18 23:42:00,
2013-04-18 19:52:00,62.0,59.0,30.06,ESE,102,3.0,7.0,90,0.00,,,0.04,,2013-04-18 23:52:00,
2013-04-18 20:01:00,62.0,59.0,30.05,East,92,3.0,9.0,90,0.00,,,0.04,,2013-04-19 00:01:00,
2013-04-18 20:12:00,62.0,59.0,30.05,East,92,3.0,9.0,90,0.00,,,0.04,,2013-04-19 00:12:00,
2013-04-18 20:22:00,62.0,59.0,30.05,East,101,4.0,10.0,90,0.00,,,0.04,,2013-04-19 00:22:00,
2013-04-18 20:32:00,62.0,59.0,30.04,East,98,5.0,10.0,90,0.00,,,0.04,,2013-04-19 00:32:00,
2013-04-18 20:42:00,62.0,59.0,30.04,East,98,5.0,10.0,90,0.00,,,0.04,,2013-04-19 00:42:00,
2013-04-18 20:51:00,62.0,59.0,30.04,ESE,111,3.0,14.0,90,0.00,,,0.04,,2013-04-19 00:51:00,
2013-04-18 21:01:00,62.0,59.0,30.05,ESE,110,3.0,9.0,89,0.00,,,0.04,,2013-04-19 01:01:00,
2013-04-18 21:11:00,62.0,59.0,30.05,ESE,110,3.0,9.0,89,0.00,,,0.04,,2013-04-19 01:11:00,
2013-04-18 21:21:00,62.0,59.0,30.05,East,100,5.0,9.0,89,0.00,,,0.04,,2013-04-19 01:21:00,
2013-04-18 21:32:00,62.0,59.0,30.05,ESE,102,5.0,12.0,89,0.00,,,0.04,,2013-04-19 01:32:00,
2013-04-18 21:42:00,62.0,59.0,30.05,ESE,102,5.0,12.0,89,0.00,,,0.04,,2013-04-19 01:42:00,
2013-04-18 21:52:00,61.0,58.0,30.05,ESE,104,6.0,12.0,90,0.00,,,0.04,,2013-04-19 01:52:00,
2013-04-18 22:02:00,61.0,58.0,30.05,ESE,104,5.0,10.0,89,0.00,,,0.04,,2013-04-19 02:02:00,
2013-04-18 22:11:00,61.0,58.0,30.05,ESE,104,5.0,10.0,89,0.00,,,0.04,,2013-04-19 02:11:00,
2013-04-18 22:21:00,61.0,58.0,30.04,ESE,121,6.0,10.0,89,0.00,,,0.04,,2013-04-19 02:21:00,
2013-04-18 22:32:00,61.0,58.0,30.03,ESE,111,6.0,12.0,89,0.00,,,0.04,,2013-04-19 02:32:00,
2013-04-18 22:42:00,61.0,58.0,30.03,ESE,111,6.0,12.0,89,0.00,,,0.04,,2013-04-19 02:42:00,
2013-04-18 22:51:00,60.0,57.0,30.03,East,94,5.0,9.0,90,0.00,,,0.04,,2013-04-19 02:51:00,
2013-04-18 23:01:00,60.0,57.0,30.02,ESE,110,5.0,9.0,90,0.00,,,0.04,,2013-04-19 03:01:00,
2013-04-18 23:12:00,60.0,57.0,30.02,ESE,110,5.0,9.0,90,0.00,,,0.04,,2013-04-19 03:12:00,
2013-04-18 23:22:00,60.0,57.0,30.01,ESE,102,5.0,9.0,90,0.00,,,0.04,,2013-04-19 03:22:00,
2013-04-18 23:33:00,60.0,57.0,30.01,East,99,5.0,10.0,91,0.00,,,0.04,,2013-04-19 03:33:00,
2013-04-18 23:43:00,60.0,57.0,30.01,East,99,5.0,10.0,91,0.00,,,0.04,,2013-04-19 03:43:00,
2013-04-18 23:53:00,60.0,57.0,30.01,ESE,109,5.0,10.0,91,0.00,,,0.04,,2013-04-19 03:53:00,